createdAt,value
2019-03-03T00:00:26.992Z,13.00
2019-03-03T00:02:55.491Z,13.00
2019-03-03T00:05:23.740Z,13.00
2019-03-03T00:07:51.970Z,13.00
2019-03-03T00:10:20.217Z,13.00
2019-03-03T00:12:48.487Z,13.10
2019-03-03T00:15:17.114Z,13.00
2019-03-03T00:17:45.358Z,13.10
2019-03-03T00:20:14.754Z,13.10
2019-03-03T00:22:42.991Z,13.10
2019-03-03T00:25:13.730Z,13.10
2019-03-03T00:27:42.229Z,13.10
2019-03-03T00:30:17.450Z,13.10
2019-03-03T00:32:45.714Z,13.10
2019-03-03T00:35:14.210Z,13.10
2019-03-03T00:37:47.097Z,13.10
2019-03-03T00:40:26.499Z,13.10
2019-03-03T00:42:56.385Z,13.10
2019-03-03T00:45:27.407Z,13.10
2019-03-03T00:47:57.363Z,13.10
2019-03-03T00:50:45.521Z,13.10
2019-03-03T00:53:15.413Z,13.10
2019-03-03T00:55:47.981Z,13.10
2019-03-03T00:58:26.798Z,13.10
2019-03-03T01:01:11.955Z,13.20
2019-03-03T01:03:50.784Z,13.20
2019-03-03T01:06:37.189Z,13.20
2019-03-03T01:09:16.490Z,13.20
2019-03-03T01:11:58.553Z,13.20
2019-03-03T01:14:31.124Z,13.20
2019-03-03T01:17:00.995Z,13.20
2019-03-03T01:19:33.833Z,13.20
2019-03-03T01:22:09.478Z,13.20
2019-03-03T01:24:39.358Z,13.20
2019-03-03T01:27:07.702Z,13.20
2019-03-03T01:29:36.026Z,13.20
2019-03-03T01:32:05.175Z,13.20
2019-03-03T01:34:33.537Z,13.20
2019-03-03T01:37:01.797Z,13.20
2019-03-03T01:39:30.036Z,13.20
2019-03-03T01:41:58.277Z,13.20
2019-03-03T01:44:26.535Z,13.20
2019-03-03T01:46:54.765Z,13.20
2019-03-03T01:49:23.055Z,13.20
2019-03-03T01:51:51.601Z,13.20
2019-03-03T01:54:19.869Z,13.20
2019-03-03T01:56:48.111Z,13.20
2019-03-03T01:59:16.451Z,13.20
2019-03-03T02:01:44.691Z,13.20
2019-03-03T02:04:12.950Z,13.10
2019-03-03T02:06:41.189Z,13.10
2019-03-03T02:09:11.470Z,13.10
2019-03-03T02:11:39.777Z,13.10
2019-03-03T02:14:08.037Z,13.10
2019-03-03T02:16:37.332Z,13.10
2019-03-03T02:19:05.744Z,13.10
2019-03-03T02:21:33.987Z,13.10
2019-03-03T02:24:02.212Z,13.10
2019-03-03T02:26:30.441Z,13.10
2019-03-03T02:28:59.061Z,13.00
2019-03-03T02:31:27.393Z,13.00
2019-03-03T02:33:55.626Z,13.00
2019-03-03T02:36:24.104Z,13.00
2019-03-03T02:38:52.494Z,13.00
2019-03-03T02:41:20.736Z,13.00
2019-03-03T02:43:49.050Z,13.00
2019-03-03T02:46:17.312Z,13.00
2019-03-03T02:48:45.543Z,12.90
2019-03-03T02:51:14.229Z,12.90
2019-03-03T02:53:42.939Z,12.90
2019-03-03T02:56:11.789Z,12.90
2019-03-03T02:58:40.137Z,12.90
2019-03-03T03:01:15.734Z,12.90
2019-03-03T03:03:43.983Z,12.90
2019-03-03T03:06:20.088Z,12.90
2019-03-03T03:09:06.277Z,12.90
2019-03-03T03:11:45.073Z,12.80
2019-03-03T03:14:15.209Z,12.80
2019-03-03T03:16:45.171Z,12.80
2019-03-03T03:19:20.843Z,12.80
2019-03-03T03:21:56.681Z,12.70
2019-03-03T03:24:26.566Z,12.70
2019-03-03T03:27:07.292Z,12.70
2019-03-03T03:29:46.002Z,12.70
2019-03-03T03:32:18.868Z,12.70
2019-03-03T03:34:48.914Z,12.70
2019-03-03T03:37:22.001Z,12.60
2019-03-03T03:39:54.406Z,12.60
2019-03-03T03:42:24.285Z,12.60
2019-03-03T03:44:56.767Z,12.60
2019-03-03T03:47:35.674Z,12.60
2019-03-03T03:50:20.149Z,12.60
2019-03-03T03:52:56.094Z,12.50
2019-03-03T03:55:42.485Z,12.50
2019-03-03T03:58:12.881Z,12.50
2019-03-03T04:00:42.793Z,12.50
2019-03-03T04:03:27.892Z,12.50
2019-03-03T04:06:00.021Z,12.50
2019-03-03T04:08:44.998Z,12.50
2019-03-03T04:11:14.874Z,12.50
2019-03-03T04:13:44.858Z,12.50
2019-03-03T04:16:17.883Z,12.50
2019-03-03T04:18:49.386Z,12.40
2019-03-03T04:21:35.565Z,12.50
2019-03-03T04:24:05.434Z,12.50
2019-03-03T04:26:44.162Z,12.40
2019-03-03T04:29:25.754Z,12.40
2019-03-03T04:31:55.833Z,12.40
2019-03-03T04:34:28.725Z,12.40
2019-03-03T04:37:01.809Z,12.40
2019-03-03T04:39:34.326Z,12.40
2019-03-03T04:42:07.235Z,12.40
2019-03-03T04:44:45.941Z,12.40
2019-03-03T04:47:18.784Z,12.40
2019-03-03T04:49:55.105Z,12.40
2019-03-03T04:52:25.037Z,12.40
2019-03-03T04:55:01.186Z,12.40
2019-03-03T04:57:43.260Z,12.50
2019-03-03T05:00:13.957Z,12.50
2019-03-03T05:02:53.092Z,12.50
2019-03-03T05:05:22.977Z,12.50
2019-03-03T05:07:52.857Z,12.50
2019-03-03T05:10:28.531Z,12.40
2019-03-03T05:13:04.221Z,12.50
2019-03-03T05:15:50.523Z,12.40
2019-03-03T05:18:20.422Z,12.50
2019-03-03T05:20:50.523Z,12.50
2019-03-03T05:23:18.775Z,12.50
2019-03-03T05:25:47.087Z,12.50
2019-03-03T05:28:15.369Z,12.50
2019-03-03T05:30:43.996Z,12.50
2019-03-03T05:33:12.226Z,12.60
2019-03-03T05:35:40.464Z,12.60
2019-03-03T05:38:08.721Z,12.60
2019-03-03T05:40:36.969Z,12.60
2019-03-03T05:43:05.196Z,12.60
2019-03-03T05:45:33.541Z,12.70
2019-03-03T05:48:01.824Z,12.70
2019-03-03T05:50:30.082Z,12.70
2019-03-03T05:52:58.380Z,12.80
2019-03-03T05:55:26.873Z,12.80
2019-03-03T05:57:55.109Z,12.80
2019-03-03T06:00:23.373Z,12.80
2019-03-03T06:02:51.903Z,12.80
2019-03-03T06:05:20.141Z,12.90
2019-03-03T06:07:48.398Z,12.90
2019-03-03T06:10:16.629Z,12.80
2019-03-03T06:12:44.882Z,12.90
2019-03-03T06:15:14.740Z,12.90
2019-03-03T06:17:42.976Z,12.90
2019-03-03T06:20:11.968Z,12.90
2019-03-03T06:22:40.306Z,12.90
2019-03-03T06:25:09.876Z,12.90
2019-03-03T06:27:38.117Z,12.90
2019-03-03T06:30:09.804Z,12.90
2019-03-03T06:32:38.039Z,12.90
2019-03-03T06:35:08.307Z,12.90
2019-03-03T06:37:36.941Z,12.90
2019-03-03T06:40:08.067Z,12.90
2019-03-03T06:42:36.307Z,12.90
2019-03-03T06:45:07.293Z,12.90
2019-03-03T06:47:35.531Z,12.90
2019-03-03T06:50:04.605Z,12.90
2019-03-03T06:52:33.419Z,12.90
2019-03-03T06:55:01.666Z,12.90
2019-03-03T06:57:29.949Z,13.00
2019-03-03T06:59:58.290Z,13.00
2019-03-03T07:02:26.637Z,13.00
2019-03-03T07:04:55.094Z,12.90
2019-03-03T07:07:23.337Z,13.00
2019-03-03T07:09:51.639Z,13.00
2019-03-03T07:12:21.501Z,13.00
2019-03-03T07:14:49.748Z,13.00
2019-03-03T07:17:17.987Z,13.00
2019-03-03T07:19:46.260Z,13.00
2019-03-03T07:22:14.601Z,13.00
2019-03-03T07:24:42.918Z,13.00
2019-03-03T07:27:11.153Z,13.00
2019-03-03T07:29:41.122Z,13.10
2019-03-03T07:32:09.452Z,13.10
2019-03-03T07:34:37.737Z,13.00
2019-03-03T07:37:05.983Z,13.10
2019-03-03T07:39:34.216Z,13.10
2019-03-03T07:42:02.454Z,13.00
2019-03-03T07:44:30.705Z,13.00
2019-03-03T07:46:58.951Z,13.00
2019-03-03T07:49:27.174Z,13.00
2019-03-03T07:51:57.138Z,13.00
2019-03-03T07:54:25.392Z,13.00
2019-03-03T07:56:53.727Z,13.00
2019-03-03T07:59:21.980Z,13.00
2019-03-03T08:01:50.215Z,13.10
2019-03-03T08:04:18.515Z,13.10
2019-03-03T08:06:47.214Z,13.10
2019-03-03T08:09:15.450Z,13.10
2019-03-03T08:11:43.686Z,13.00
2019-03-03T08:14:11.941Z,13.10
2019-03-03T08:16:40.174Z,13.10
2019-03-03T08:19:08.412Z,13.10
2019-03-03T08:21:36.648Z,13.10
2019-03-03T08:24:05.135Z,13.10
2019-03-03T08:26:33.406Z,13.10
2019-03-03T08:29:01.851Z,13.10
2019-03-03T08:31:30.069Z,13.20
2019-03-03T08:33:58.306Z,13.20
2019-03-03T08:36:26.568Z,13.20
2019-03-03T08:38:54.822Z,13.20
2019-03-03T08:41:23.222Z,13.20
2019-03-03T08:43:53.130Z,13.20
2019-03-03T08:46:23.070Z,13.30
2019-03-03T08:48:55.787Z,13.30
2019-03-03T08:51:25.677Z,13.30
2019-03-03T08:53:55.554Z,13.20
2019-03-03T08:56:25.430Z,13.30
2019-03-03T08:58:55.317Z,13.30
2019-03-03T09:01:31.169Z,13.30
2019-03-03T09:04:03.468Z,13.40
2019-03-03T09:06:39.046Z,13.40
2019-03-03T09:09:18.218Z,13.40
2019-03-03T09:12:00.224Z,13.40
2019-03-03T09:14:39.105Z,13.40
2019-03-03T09:17:23.775Z,13.40
2019-03-03T09:20:12.123Z,13.40
2019-03-03T09:22:44.921Z,13.50
2019-03-03T09:25:30.041Z,13.50
2019-03-03T09:28:02.308Z,13.50
2019-03-03T09:30:35.134Z,13.50
2019-03-03T09:33:14.083Z,13.50
2019-03-03T09:35:43.957Z,13.50
2019-03-03T09:38:29.029Z,13.60
2019-03-03T09:41:06.107Z,13.60
2019-03-03T09:43:52.321Z,13.60
2019-03-03T09:46:25.158Z,13.60
2019-03-03T09:48:58.136Z,13.60
2019-03-03T09:51:28.016Z,13.60
2019-03-03T09:54:00.869Z,13.60
2019-03-03T09:56:47.350Z,13.60
2019-03-03T09:59:23.274Z,13.70
2019-03-03T10:01:53.206Z,13.70
2019-03-03T10:04:41.453Z,13.70
2019-03-03T10:07:11.324Z,13.70
2019-03-03T10:09:53.091Z,13.80
2019-03-03T10:12:23.209Z,13.80
2019-03-03T10:14:53.087Z,13.80
2019-03-03T10:17:32.001Z,13.90
2019-03-03T10:20:04.531Z,13.90
2019-03-03T10:22:43.526Z,14.00
2019-03-03T10:25:20.055Z,14.00
2019-03-03T10:27:52.884Z,14.10
2019-03-03T10:30:23.222Z,14.10
2019-03-03T10:32:53.260Z,14.10
2019-03-03T10:35:26.060Z,14.20
2019-03-03T10:37:59.199Z,14.20
2019-03-03T10:40:35.066Z,14.30
2019-03-03T10:43:21.825Z,14.30
2019-03-03T10:45:52.223Z,14.40
2019-03-03T10:48:24.977Z,14.40
2019-03-03T10:50:58.226Z,14.40
2019-03-03T10:53:33.989Z,14.40
2019-03-03T10:56:13.156Z,14.50
2019-03-03T10:58:46.211Z,14.50
2019-03-03T11:01:25.144Z,14.60
2019-03-03T11:03:55.107Z,14.60
2019-03-03T11:06:27.637Z,14.60
2019-03-03T11:08:57.581Z,14.60
2019-03-03T11:11:44.231Z,14.70
2019-03-03T11:14:30.686Z,14.70
2019-03-03T11:17:00.577Z,14.70
2019-03-03T11:19:33.178Z,14.70
2019-03-03T11:22:03.113Z,14.70
2019-03-03T11:24:40.099Z,14.70
2019-03-03T11:27:09.992Z,14.80
2019-03-03T11:29:49.220Z,14.70
2019-03-03T11:32:21.663Z,14.80
2019-03-03T11:34:51.535Z,14.80
2019-03-03T11:37:24.338Z,14.80
2019-03-03T11:39:54.201Z,14.80
2019-03-03T11:42:33.021Z,14.80
2019-03-03T11:45:02.905Z,14.80
2019-03-03T11:47:32.790Z,14.90
2019-03-03T11:50:11.685Z,14.90
2019-03-03T11:52:44.213Z,14.90
2019-03-03T11:55:14.103Z,14.90
2019-03-03T11:57:49.757Z,14.90
2019-03-03T12:00:25.355Z,14.90
2019-03-03T12:03:01.217Z,14.90
2019-03-03T12:05:37.081Z,14.90
2019-03-03T12:08:12.977Z,14.80
2019-03-03T12:10:42.836Z,14.80
2019-03-03T12:13:21.771Z,14.80
2019-03-03T12:15:57.956Z,14.80
2019-03-03T12:18:44.179Z,14.80
2019-03-03T12:21:23.035Z,14.70
2019-03-03T12:23:53.154Z,14.80
2019-03-03T12:26:32.173Z,14.70
2019-03-03T12:29:07.945Z,14.70
2019-03-03T12:31:50.869Z,14.70
2019-03-03T12:34:23.706Z,14.70
2019-03-03T12:36:54.229Z,14.70
2019-03-03T12:39:30.245Z,14.60
2019-03-03T12:42:00.217Z,14.60
2019-03-03T12:44:30.100Z,14.60
2019-03-03T12:47:08.834Z,14.60
2019-03-03T12:49:53.753Z,14.60
2019-03-03T12:52:23.650Z,14.70
2019-03-03T12:54:56.335Z,14.70
2019-03-03T12:57:32.478Z,14.60
2019-03-03T13:00:02.354Z,14.60
2019-03-03T13:02:48.662Z,14.60
2019-03-03T13:05:34.973Z,14.60
2019-03-03T13:08:07.855Z,14.60
2019-03-03T13:10:40.542Z,14.60
2019-03-03T13:13:10.459Z,14.60
2019-03-03T13:15:43.123Z,14.60
2019-03-03T13:18:13.602Z,14.60
2019-03-03T13:20:45.870Z,14.60
2019-03-03T13:23:18.716Z,14.60
2019-03-03T13:25:51.333Z,14.60
2019-03-03T13:28:33.340Z,14.60
2019-03-03T13:31:15.461Z,14.70
2019-03-03T13:34:00.809Z,14.70
2019-03-03T13:36:47.223Z,14.70
2019-03-03T13:39:19.779Z,14.70
2019-03-03T13:41:56.674Z,14.60
2019-03-03T13:44:25.033Z,14.70
2019-03-03T13:46:53.420Z,14.70
2019-03-03T13:49:21.659Z,14.70
2019-03-03T13:51:50.010Z,14.70
2019-03-03T13:54:18.267Z,14.70
2019-03-03T13:56:46.510Z,14.70
2019-03-03T13:59:14.749Z,14.80
2019-03-03T14:01:43.546Z,14.70
2019-03-03T14:04:11.906Z,14.70
2019-03-03T14:06:40.250Z,14.70
2019-03-03T14:09:08.898Z,14.70
2019-03-03T14:11:37.133Z,14.70
2019-03-03T14:14:05.374Z,14.70
2019-03-03T14:16:33.626Z,14.80
2019-03-03T14:19:01.857Z,14.80
2019-03-03T14:21:30.499Z,14.70
2019-03-03T14:23:59.045Z,14.70
2019-03-03T14:26:27.319Z,14.80
2019-03-03T14:28:55.577Z,14.70
2019-03-03T14:31:24.685Z,14.80
2019-03-03T14:33:52.928Z,14.70
2019-03-03T14:36:21.154Z,14.70
2019-03-03T14:38:49.429Z,14.70
2019-03-03T14:41:17.670Z,14.70
2019-03-03T14:43:45.907Z,14.80
2019-03-03T14:46:14.178Z,14.80
2019-03-03T14:48:42.414Z,14.80
2019-03-03T14:51:10.648Z,14.80
2019-03-03T14:53:38.898Z,14.80
2019-03-03T14:56:07.141Z,14.80
2019-03-03T14:58:35.385Z,14.80
2019-03-03T15:01:03.830Z,14.80
2019-03-03T15:03:32.135Z,14.80
2019-03-03T15:06:00.368Z,14.80
2019-03-03T15:08:28.683Z,14.80
2019-03-03T15:10:56.921Z,14.80
2019-03-03T15:13:25.166Z,14.80
2019-03-03T15:15:53.444Z,14.80
2019-03-03T15:18:21.665Z,14.80
2019-03-03T15:20:49.959Z,14.80
2019-03-03T15:23:18.434Z,14.80
2019-03-03T15:25:46.693Z,14.90
2019-03-03T15:28:14.926Z,14.90
2019-03-03T15:30:43.233Z,14.90
2019-03-03T15:33:11.484Z,14.90
2019-03-03T15:35:39.705Z,14.90
2019-03-03T15:38:07.961Z,14.90
2019-03-03T15:40:36.205Z,14.90
2019-03-03T15:43:04.438Z,14.90
2019-03-03T15:45:33.171Z,14.90
2019-03-03T15:48:01.408Z,14.90
2019-03-03T15:50:29.749Z,14.90
2019-03-03T15:52:58.061Z,14.90
2019-03-03T15:55:27.635Z,14.90
2019-03-03T15:57:55.887Z,14.90
2019-03-03T16:00:39.020Z,14.90
2019-03-03T16:03:07.274Z,14.90
2019-03-03T16:05:35.517Z,14.90
2019-03-03T16:08:08.489Z,15.00
2019-03-03T16:10:36.865Z,15.00
2019-03-03T16:13:05.243Z,14.90
2019-03-03T16:15:33.535Z,15.00
2019-03-03T16:18:01.777Z,15.00
2019-03-03T16:20:30.112Z,14.90
2019-03-03T16:22:58.366Z,15.00
2019-03-03T16:25:26.692Z,15.00
2019-03-03T16:27:54.932Z,15.00
2019-03-03T16:30:24.222Z,15.00
2019-03-03T16:32:52.466Z,15.00
2019-03-03T16:35:20.693Z,15.00
2019-03-03T16:37:49.135Z,15.00
2019-03-03T16:40:25.237Z,15.00
2019-03-03T16:42:53.509Z,15.10
2019-03-03T16:45:21.822Z,15.10
2019-03-03T16:47:50.076Z,15.10
2019-03-03T16:50:22.469Z,15.10
2019-03-03T16:52:50.786Z,15.10
2019-03-03T16:55:22.005Z,15.10
2019-03-03T16:57:50.258Z,15.10
2019-03-03T17:00:22.594Z,15.10
2019-03-03T17:02:50.845Z,15.10
2019-03-03T17:05:23.901Z,15.10
2019-03-03T17:07:52.446Z,15.10
2019-03-03T17:10:20.697Z,15.10
2019-03-03T17:12:50.577Z,15.10
2019-03-03T17:15:22.129Z,15.00
2019-03-03T17:17:52.000Z,15.00
2019-03-03T17:20:20.237Z,15.00
2019-03-03T17:22:48.492Z,15.00
2019-03-03T17:25:23.827Z,15.00
2019-03-03T17:27:52.081Z,15.00
2019-03-03T17:30:24.433Z,15.00
2019-03-03T17:32:52.677Z,15.00
2019-03-03T17:35:20.950Z,14.90
2019-03-03T17:37:49.422Z,14.90
2019-03-03T17:40:26.063Z,14.90
2019-03-03T17:42:54.385Z,14.90
2019-03-03T17:46:03.963Z,14.90
2019-03-03T17:48:32.565Z,14.90
2019-03-03T17:51:01.170Z,14.90
2019-03-03T17:53:29.717Z,14.90
2019-03-03T17:55:58.372Z,14.90
2019-03-03T17:58:27.078Z,14.90
2019-03-03T18:00:55.757Z,14.90
2019-03-03T18:03:24.225Z,14.90
2019-03-03T18:05:52.500Z,14.90
2019-03-03T18:08:22.430Z,14.90
2019-03-03T18:10:50.674Z,14.90
2019-03-03T18:13:18.929Z,14.90
2019-03-03T18:15:47.182Z,14.90
2019-03-03T18:18:15.453Z,14.90
2019-03-03T18:20:43.778Z,14.90
2019-03-03T18:23:12.114Z,15.00
2019-03-03T18:25:40.355Z,15.00
2019-03-03T18:28:08.609Z,15.00
2019-03-03T18:30:37.173Z,15.00
2019-03-03T18:33:05.592Z,15.00
2019-03-03T18:35:33.828Z,15.00
2019-03-03T18:38:02.066Z,15.00
2019-03-03T18:40:30.294Z,14.90
2019-03-03T18:42:58.534Z,14.90
2019-03-03T18:45:26.793Z,14.90
2019-03-03T18:47:55.023Z,14.90
2019-03-03T18:50:25.222Z,14.80
2019-03-03T18:52:53.558Z,14.80
2019-03-03T18:55:21.824Z,14.80
2019-03-03T18:57:50.049Z,14.80
2019-03-03T19:00:29.830Z,14.80
2019-03-03T19:02:58.489Z,14.80
2019-03-03T19:05:26.962Z,14.70
2019-03-03T19:07:55.209Z,14.70
2019-03-03T19:10:26.017Z,14.70
2019-03-03T19:12:54.263Z,14.80
2019-03-03T19:15:22.623Z,14.80
2019-03-03T19:17:50.866Z,14.70
2019-03-03T19:20:20.238Z,14.80
2019-03-03T19:22:48.495Z,14.70
2019-03-03T19:25:16.734Z,14.80
2019-03-03T19:27:44.970Z,14.70
2019-03-03T19:30:16.473Z,14.80
2019-03-03T19:32:45.271Z,14.80
2019-03-03T19:35:13.512Z,14.70
2019-03-03T19:37:41.761Z,14.80
2019-03-03T19:40:11.947Z,14.70
2019-03-03T19:42:40.193Z,14.70
2019-03-03T19:45:20.581Z,14.70
2019-03-03T19:47:48.817Z,14.70
2019-03-03T19:50:17.663Z,14.70
2019-03-03T19:52:45.931Z,14.70
2019-03-03T19:55:16.331Z,14.70
2019-03-03T19:57:44.573Z,14.70
2019-03-03T20:00:35.002Z,14.80
2019-03-03T20:02:57.319Z,14.80
2019-03-03T20:05:25.552Z,14.80
2019-03-03T20:07:53.823Z,14.80
2019-03-03T20:10:22.055Z,14.80
2019-03-03T20:12:50.785Z,14.80
2019-03-03T20:15:19.027Z,14.80
2019-03-03T20:17:47.650Z,14.80
2019-03-03T20:20:20.182Z,14.80
2019-03-03T20:22:48.448Z,14.80
2019-03-03T20:25:16.683Z,14.80
2019-03-03T20:27:45.514Z,14.80
2019-03-03T20:30:20.538Z,14.80
2019-03-03T20:32:48.838Z,14.80
2019-03-03T20:35:17.111Z,14.80
2019-03-03T20:37:45.349Z,14.80
2019-03-03T20:40:18.682Z,14.90
2019-03-03T20:42:46.995Z,14.90
2019-03-03T20:45:26.607Z,14.90
2019-03-03T20:47:54.986Z,14.90
2019-03-03T20:50:23.228Z,15.00
2019-03-03T20:52:51.499Z,15.00
2019-03-03T20:55:25.813Z,15.00
2019-03-03T20:57:54.194Z,15.00
2019-03-03T21:00:24.398Z,15.10
2019-03-03T21:02:52.634Z,15.10
2019-03-03T21:05:20.874Z,15.10
2019-03-03T21:07:51.683Z,15.10
2019-03-03T21:10:21.576Z,15.20
2019-03-03T21:12:49.805Z,15.20
2019-03-03T21:15:18.098Z,15.20
2019-03-03T21:17:46.422Z,15.20
2019-03-03T21:20:21.791Z,15.30
2019-03-03T21:22:50.077Z,15.30
2019-03-03T21:25:18.994Z,15.30
2019-03-03T21:27:47.301Z,15.30
2019-03-03T21:30:21.343Z,15.30
2019-03-03T21:32:49.660Z,15.40
2019-03-03T21:35:25.932Z,15.30
2019-03-03T21:37:54.965Z,15.40
2019-03-03T21:40:25.214Z,15.40
2019-03-03T21:42:55.158Z,15.40
2019-03-03T21:45:26.425Z,15.40
2019-03-03T21:48:02.326Z,15.40
2019-03-03T21:50:31.551Z,15.40
2019-03-03T21:53:00.173Z,15.40
2019-03-03T21:55:31.594Z,15.40
2019-03-03T21:57:59.906Z,15.40
2019-03-03T22:00:39.319Z,15.40
2019-03-03T22:03:07.556Z,15.40
2019-03-03T22:05:35.773Z,15.40
2019-03-03T22:08:05.239Z,15.40
2019-03-03T22:10:33.547Z,15.40
2019-03-03T22:13:09.169Z,15.40
2019-03-03T22:15:37.430Z,15.40
2019-03-03T22:18:05.728Z,15.40
2019-03-03T22:20:33.989Z,15.40
2019-03-03T22:23:02.299Z,15.40
2019-03-03T22:25:30.811Z,15.40
2019-03-03T22:28:00.682Z,15.40
2019-03-03T22:30:29.029Z,15.40
2019-03-03T22:32:57.269Z,15.40
2019-03-03T22:35:25.497Z,15.40
2019-03-03T22:37:53.785Z,15.50
2019-03-03T22:40:23.774Z,15.40
2019-03-03T22:42:52.023Z,15.50
2019-03-03T22:45:20.274Z,15.50
2019-03-03T22:47:48.517Z,15.50
2019-03-03T22:50:20.687Z,15.50
2019-03-03T22:52:48.934Z,15.50
2019-03-03T22:55:18.470Z,15.50
2019-03-03T22:57:46.754Z,15.50
2019-03-03T23:00:46.333Z,15.50
2019-03-03T23:03:17.823Z,15.50
2019-03-03T23:05:55.721Z,15.50
2019-03-03T23:08:30.259Z,15.50
2019-03-03T23:11:10.643Z,15.50
2019-03-03T23:13:42.134Z,15.50
2019-03-03T23:16:37.878Z,15.50
2019-03-03T23:19:27.217Z,15.60
2019-03-03T23:22:08.899Z,15.60
2019-03-03T23:24:40.387Z,15.50
2019-03-03T23:27:08.631Z,15.50
2019-03-03T23:29:36.977Z,15.50
2019-03-03T23:32:05.202Z,15.50
2019-03-03T23:34:33.442Z,15.50
2019-03-03T23:37:01.683Z,15.50
2019-03-03T23:39:29.916Z,15.60
2019-03-03T23:41:58.446Z,15.60
2019-03-03T23:44:26.685Z,15.60
2019-03-03T23:46:54.994Z,15.60
2019-03-03T23:49:23.271Z,15.70
2019-03-03T23:51:51.627Z,15.70
2019-03-03T23:54:19.863Z,15.70
2019-03-03T23:56:49.721Z,15.70
2019-03-03T23:59:18.042Z,15.70
